sensor_id;sensor_type;location;lat;lon;timestamp;pressure;altitude;pressure_sealevel;temperature;humidity
34197;BME280;36594;45.192;5.722;2023-03-20T00:00:32;99629.41;;;23.73;35.30
34197;BME280;36594;45.192;5.722;2023-03-20T00:03:22;99621.17;;;23.73;35.39
34197;BME280;36594;45.192;5.722;2023-03-20T00:06:16;99625.29;;;23.73;35.36
34197;BME280;36594;45.192;5.722;2023-03-20T00:09:05;99625.56;;;23.74;35.39
34197;BME280;36594;45.192;5.722;2023-03-20T00:11:55;99625.56;;;23.74;35.39
34197;BME280;36594;45.192;5.722;2023-03-20T00:14:44;99627.00;;;23.76;35.37
34197;BME280;36594;45.192;5.722;2023-03-20T00:17:32;99627.31;;;23.77;35.29
34197;BME280;36594;45.192;5.722;2023-03-20T00:20:21;99630.78;;;23.73;35.39
34197;BME280;36594;45.192;5.722;2023-03-20T00:23:10;99631.65;;;23.76;35.39
34197;BME280;36594;45.192;5.722;2023-03-20T00:25:58;99628.69;;;23.77;35.35
34197;BME280;36594;45.192;5.722;2023-03-20T00:28:47;99628.63;;;23.75;35.40
34197;BME280;36594;45.192;5.722;2023-03-20T00:31:37;99627.25;;;23.75;35.46
34197;BME280;36594;45.192;5.722;2023-03-20T00:34:27;99622.61;;;23.75;35.42
34197;BME280;36594;45.192;5.722;2023-03-20T00:37:18;99617.66;;;23.75;35.43
34197;BME280;36594;45.192;5.722;2023-03-20T00:40:07;99613.23;;;23.74;35.48
34197;BME280;36594;45.192;5.722;2023-03-20T00:43:01;99613.34;;;23.79;35.40
34197;BME280;36594;45.192;5.722;2023-03-20T00:45:51;99609.42;;;23.75;35.47
34197;BME280;36594;45.192;5.722;2023-03-20T00:48:41;99609.70;;;23.76;35.44
34197;BME280;36594;45.192;5.722;2023-03-20T00:51:29;99611.98;;;23.79;35.47
34197;BME280;36594;45.192;5.722;2023-03-20T00:54:18;99608.45;;;23.81;35.38
34197;BME280;36594;45.192;5.722;2023-03-20T00:57:24;99613.13;;;23.80;35.42
34197;BME280;36594;45.192;5.722;2023-03-20T01:00:35;99609.55;;;23.80;35.42
34197;BME280;36594;45.192;5.722;2023-03-20T01:03:24;99606.80;;;23.80;35.45
34197;BME280;36594;45.192;5.722;2023-03-20T01:06:15;99602.09;;;23.78;35.46
34197;BME280;36594;45.192;5.722;2023-03-20T01:09:05;99598.52;;;23.77;35.48
34197;BME280;36594;45.192;5.722;2023-03-20T01:11:53;99592.56;;;23.80;35.47
34197;BME280;36594;45.192;5.722;2023-03-20T01:14:42;99589.81;;;23.80;35.46
34197;BME280;36594;45.192;5.722;2023-03-20T01:17:31;99591.19;;;23.80;35.45
34197;BME280;36594;45.192;5.722;2023-03-20T01:20:22;99585.14;;;23.81;35.46
34197;BME280;36594;45.192;5.722;2023-03-20T01:23:10;99582.77;;;23.84;35.49
34197;BME280;36594;45.192;5.722;2023-03-20T01:25:59;99578.28;;;23.81;35.46
34197;BME280;36594;45.192;5.722;2023-03-20T01:28:49;99572.32;;;23.84;35.46
34197;BME280;36594;45.192;5.722;2023-03-20T01:31:38;99568.80;;;23.86;35.44
34197;BME280;36594;45.192;5.722;2023-03-20T01:34:28;99564.68;;;23.86;35.41
34197;BME280;36594;45.192;5.722;2023-03-20T01:37:23;99563.31;;;23.86;35.44
34197;BME280;36594;45.192;5.722;2023-03-20T01:40:25;99558.13;;;23.87;35.41
34197;BME280;36594;45.192;5.722;2023-03-20T01:43:13;99554.30;;;23.88;35.41
34197;BME280;36594;45.192;5.722;2023-03-20T01:46:29;99552.86;;;23.85;35.42
34197;BME280;36594;45.192;5.722;2023-03-20T01:52:11;99541.03;;;23.82;35.58
34197;BME280;36594;45.192;5.722;2023-03-20T01:55:00;99541.36;;;23.86;35.51
34197;BME280;36594;45.192;5.722;2023-03-20T01:57:51;99537.02;;;23.87;35.49
34197;BME280;36594;45.192;5.722;2023-03-20T02:00:42;99537.36;;;23.91;35.48
34197;BME280;36594;45.192;5.722;2023-03-20T02:03:31;99535.67;;;23.90;35.49
34197;BME280;36594;45.192;5.722;2023-03-20T02:06:28;99532.46;;;23.93;35.44
34197;BME280;36594;45.192;5.722;2023-03-20T02:09:21;99530.02;;;23.94;35.49
34197;BME280;36594;45.192;5.722;2023-03-20T02:12:10;99529.52;;;23.97;35.44
34197;BME280;36594;45.192;5.722;2023-03-20T02:15:00;99530.41;;;24.00;35.39
34197;BME280;36594;45.192;5.722;2023-03-20T02:18:06;99527.39;;;23.99;35.42
34197;BME280;36594;45.192;5.722;2023-03-20T02:24:25;99521.39;;;24.02;35.39
34197;BME280;36594;45.192;5.722;2023-03-20T02:36:38;99516.11;;;23.98;35.47
34197;BME280;36594;45.192;5.722;2023-03-20T02:43:18;99512.89;;;24.01;35.47
34197;BME280;36594;45.192;5.722;2023-03-20T02:49:22;99524.98;;;24.02;35.54
34197;BME280;36594;45.192;5.722;2023-03-20T02:58:27;99527.87;;;24.08;35.53
34197;BME280;36594;45.192;5.722;2023-03-20T03:01:27;99525.77;;;24.12;35.50
34197;BME280;36594;45.192;5.722;2023-03-20T03:04:24;99527.13;;;24.12;35.46
34197;BME280;36594;45.192;5.722;2023-03-20T03:07:09;99524.92;;;24.12;35.55
34197;BME280;36594;45.192;5.722;2023-03-20T03:10:04;99524.50;;;24.17;35.50
34197;BME280;36594;45.192;5.722;2023-03-20T03:12:53;99524.70;;;24.13;35.51
34197;BME280;36594;45.192;5.722;2023-03-20T03:15:46;99522.54;;;24.15;35.51
34197;BME280;36594;45.192;5.722;2023-03-20T03:18:36;99520.17;;;24.21;35.47
34197;BME280;36594;45.192;5.722;2023-03-20T03:21:26;99518.33;;;24.24;35.43
34197;BME280;36594;45.192;5.722;2023-03-20T03:24:30;99517.00;;;24.27;35.42
34197;BME280;36594;45.192;5.722;2023-03-20T03:27:34;99515.73;;;24.32;35.39
34197;BME280;36594;45.192;5.722;2023-03-20T03:30:31;99514.89;;;24.31;35.38
34197;BME280;36594;45.192;5.722;2023-03-20T03:33:28;99517.28;;;24.28;35.48
34197;BME280;36594;45.192;5.722;2023-03-20T03:42:38;99516.55;;;24.32;35.47
34197;BME280;36594;45.192;5.722;2023-03-20T03:45:35;99521.81;;;24.34;35.45
34197;BME280;36594;45.192;5.722;2023-03-20T03:48:26;99521.50;;;24.33;35.51
34197;BME280;36594;45.192;5.722;2023-03-20T03:51:17;99522.29;;;24.31;35.50
34197;BME280;36594;45.192;5.722;2023-03-20T03:54:23;99523.72;;;24.33;35.50
34197;BME280;36594;45.192;5.722;2023-03-20T03:57:09;99520.23;;;24.38;35.46
34197;BME280;36594;45.192;5.722;2023-03-20T04:00:02;99525.77;;;24.40;35.43
34197;BME280;36594;45.192;5.722;2023-03-20T04:02:56;99528.21;;;24.39;35.38
34197;BME280;36594;45.192;5.722;2023-03-20T04:05:45;99525.56;;;24.44;35.39
34197;BME280;36594;45.192;5.722;2023-03-20T04:08:34;99530.22;;;24.44;35.37
34197;BME280;36594;45.192;5.722;2023-03-20T04:11:24;99530.85;;;24.48;35.32
34197;BME280;36594;45.192;5.722;2023-03-20T04:14:14;99530.27;;;24.46;35.34
34197;BME280;36594;45.192;5.722;2023-03-20T04:17:04;99529.30;;;24.52;35.21
34197;BME280;36594;45.192;5.722;2023-03-20T04:19:52;99525.72;;;24.52;35.23
34197;BME280;36594;45.192;5.722;2023-03-20T04:22:41;99529.30;;;24.52;35.18
34197;BME280;36594;45.192;5.722;2023-03-20T04:25:30;99527.36;;;24.53;35.18
34197;BME280;36594;45.192;5.722;2023-03-20T04:28:19;99537.54;;;24.52;35.22
34197;BME280;36594;45.192;5.722;2023-03-20T04:31:12;99539.82;;;24.58;35.10
34197;BME280;36594;45.192;5.722;2023-03-20T04:34:14;99553.17;;;24.52;35.18
34197;BME280;36594;45.192;5.722;2023-03-20T04:37:19;99559.78;;;24.53;35.18
34197;BME280;36594;45.192;5.722;2023-03-20T04:40:12;99554.24;;;24.51;35.19
34197;BME280;36594;45.192;5.722;2023-03-20T04:43:02;99535.77;;;24.46;35.26
34197;BME280;36594;45.192;5.722;2023-03-20T04:45:51;99544.69;;;24.53;35.20
34197;BME280;36594;45.192;5.722;2023-03-20T04:48:41;99544.73;;;24.56;35.16
34197;BME280;36594;45.192;5.722;2023-03-20T04:51:30;99541.45;;;24.56;35.16
34197;BME280;36594;45.192;5.722;2023-03-20T04:54:19;99544.73;;;24.56;35.13
34197;BME280;36594;45.192;5.722;2023-03-20T04:57:07;99545.88;;;24.57;35.08
34197;BME280;36594;45.192;5.722;2023-03-20T04:59:57;99536.84;;;24.59;35.06
34197;BME280;36594;45.192;5.722;2023-03-20T05:02:45;99538.80;;;24.61;35.01
34197;BME280;36594;45.192;5.722;2023-03-20T05:05:35;99543.45;;;24.61;35.01
34197;BME280;36594;45.192;5.722;2023-03-20T05:08:24;99531.36;;;24.59;35.00
34197;BME280;36594;45.192;5.722;2023-03-20T05:11:14;99521.39;;;24.56;35.06
34197;BME280;36594;45.192;5.722;2023-03-20T05:14:13;99531.05;;;24.58;35.03
34197;BME280;36594;45.192;5.722;2023-03-20T05:17:06;99531.36;;;24.59;35.04
34197;BME280;36594;45.192;5.722;2023-03-20T05:20:13;99527.52;;;24.60;34.99
34197;BME280;36594;45.192;5.722;2023-03-20T05:23:03;99528.61;;;24.59;35.03
34197;BME280;36594;45.192;5.722;2023-03-20T05:26:09;99534.38;;;24.60;35.04
34197;BME280;36594;45.192;5.722;2023-03-20T05:28:58;99534.59;;;24.56;35.09
34197;BME280;36594;45.192;5.722;2023-03-20T05:32:05;99531.89;;;24.59;35.08
34197;BME280;36594;45.192;5.722;2023-03-20T05:34:58;99536.28;;;24.60;35.10
34197;BME280;36594;45.192;5.722;2023-03-20T05:37:53;99542.62;;;24.60;35.04
34197;BME280;36594;45.192;5.722;2023-03-20T05:40:43;99541.24;;;24.60;35.08
34197;BME280;36594;45.192;5.722;2023-03-20T05:43:42;99543.13;;;24.57;35.12
34197;BME280;36594;45.192;5.722;2023-03-20T05:46:49;99550.17;;;24.53;35.17
34197;BME280;36594;45.192;5.722;2023-03-20T05:49:42;99548.06;;;24.58;35.13
34197;BME280;36594;45.192;5.722;2023-03-20T05:52:41;99548.42;;;24.61;35.09
34197;BME280;36594;45.192;5.722;2023-03-20T05:55:43;99543.61;;;24.54;35.18
34197;BME280;36594;45.192;5.722;2023-03-20T05:58:49;99541.78;;;24.60;35.17
34197;BME280;36594;45.192;5.722;2023-03-20T06:01:48;99548.06;;;24.58;35.17
34197;BME280;36594;45.192;5.722;2023-03-20T06:04:45;99551.95;;;24.59;35.13
34197;BME280;36594;45.192;5.722;2023-03-20T06:07:36;99556.35;;;24.60;35.13
34197;BME280;36594;45.192;5.722;2023-03-20T06:10:27;99557.77;;;24.63;35.10
34197;BME280;36594;45.192;5.722;2023-03-20T06:13:16;99556.94;;;24.62;35.06
34197;BME280;36594;45.192;5.722;2023-03-20T06:16:07;99560.57;;;24.65;35.07
34197;BME280;36594;45.192;5.722;2023-03-20T06:18:56;99563.11;;;24.69;34.98
34197;BME280;36594;45.192;5.722;2023-03-20T06:21:44;99566.65;;;24.67;34.98
34197;BME280;36594;45.192;5.722;2023-03-20T06:24:35;99568.07;;;24.70;34.99
34197;BME280;36594;45.192;5.722;2023-03-20T06:27:25;99568.33;;;24.68;34.99
34197;BME280;36594;45.192;5.722;2023-03-20T06:30:14;99565.86;;;24.69;35.03
34197;BME280;36594;45.192;5.722;2023-03-20T06:33:05;99569.65;;;24.66;35.03
34197;BME280;36594;45.192;5.722;2023-03-20T06:35:55;99573.03;;;24.70;34.98
34197;BME280;36594;45.192;5.722;2023-03-20T06:38:45;99571.35;;;24.69;34.98
34197;BME280;36594;45.192;5.722;2023-03-20T06:41:35;99572.50;;;24.71;35.00
34197;BME280;36594;45.192;5.722;2023-03-20T06:44:26;99573.61;;;24.72;34.93
34197;BME280;36594;45.192;5.722;2023-03-20T06:47:18;99567.23;;;24.69;34.91
34197;BME280;36594;45.192;5.722;2023-03-20T06:50:09;99567.23;;;24.69;34.91
34197;BME280;36594;45.192;5.722;2023-03-20T06:52:59;99570.56;;;24.71;34.08
34197;BME280;36594;45.192;5.722;2023-03-20T06:55:55;99569.49;;;24.72;33.61
34197;BME280;36594;45.192;5.722;2023-03-20T06:58:43;99570.77;;;24.67;33.52
34197;BME280;36594;45.192;5.722;2023-03-20T07:01:33;99568.23;;;24.63;33.64
34197;BME280;36594;45.192;5.722;2023-03-20T07:04:22;99569.65;;;24.66;33.60
34197;BME280;36594;45.192;5.722;2023-03-20T07:07:13;99572.04;;;24.62;33.68
34197;BME280;36594;45.192;5.722;2023-03-20T07:10:04;99581.70;;;24.65;33.82
34197;BME280;36594;45.192;5.722;2023-03-20T07:12:54;99579.47;;;24.62;33.78
34197;BME280;36594;45.192;5.722;2023-03-20T07:15:43;99584.45;;;24.65;33.81
34197;BME280;36594;45.192;5.722;2023-03-20T07:18:33;99592.16;;;24.65;33.81
34197;BME280;36594;45.192;5.722;2023-03-20T07:21:22;99596.53;;;24.64;33.80
34197;BME280;36594;45.192;5.722;2023-03-20T07:24:11;99598.23;;;24.67;33.85
34197;BME280;36594;45.192;5.722;2023-03-20T07:27:00;99599.39;;;24.69;33.89
34197;BME280;36594;45.192;5.722;2023-03-20T07:29:49;99599.92;;;24.68;33.88
34197;BME280;36594;45.192;5.722;2023-03-20T07:32:38;99605.89;;;24.65;34.00
34197;BME280;36594;45.192;5.722;2023-03-20T07:35:27;99608.64;;;24.65;34.08
34197;BME280;36594;45.192;5.722;2023-03-20T07:38:16;99605.58;;;24.64;34.11
34197;BME280;36594;45.192;5.722;2023-03-20T07:41:06;99612.97;;;24.61;34.55
34197;BME280;36594;45.192;5.722;2023-03-20T07:43:56;99611.87;;;24.62;34.66
34197;BME280;36594;45.192;5.722;2023-03-20T07:46:46;99618.20;;;24.63;34.79
34197;BME280;36594;45.192;5.722;2023-03-20T07:49:35;99615.13;;;24.59;34.88
34197;BME280;36594;45.192;5.722;2023-03-20T07:52:23;99618.45;;;24.61;34.89
34197;BME280;36594;45.192;5.722;2023-03-20T07:55:14;99617.09;;;24.61;35.01
34197;BME280;36594;45.192;5.722;2023-03-20T07:58:03;99621.99;;;24.59;35.06
34197;BME280;36594;45.192;5.722;2023-03-20T08:00:56;99624.16;;;24.57;35.17
34197;BME280;36594;45.192;5.722;2023-03-20T08:03:44;99628.34;;;24.62;35.20
34197;BME280;36594;45.192;5.722;2023-03-20T08:06:33;99622.58;;;24.61;35.24
34197;BME280;36594;45.192;5.722;2023-03-20T08:09:24;99622.52;;;24.59;35.27
34197;BME280;36594;45.192;5.722;2023-03-20T08:12:13;99623.53;;;24.55;35.32
34197;BME280;36594;45.192;5.722;2023-03-20T08:15:04;99623.37;;;24.59;35.35
34197;BME280;36594;45.192;5.722;2023-03-20T08:17:53;99623.64;;;24.60;35.38
34197;BME280;36594;45.192;5.722;2023-03-20T08:20:41;99628.91;;;24.62;35.39
34197;BME280;36594;45.192;5.722;2023-03-20T08:23:32;99629.19;;;24.63;35.43
34197;BME280;36594;45.192;5.722;2023-03-20T08:26:21;99629.14;;;24.60;35.46
34197;BME280;36594;45.192;5.722;2023-03-20T08:29:09;99629.39;;;24.59;35.48
34197;BME280;36594;45.192;5.722;2023-03-20T08:31:58;99627.70;;;24.58;35.50
34197;BME280;36594;45.192;5.722;2023-03-20T08:34:47;99635.42;;;24.58;35.51
34197;BME280;36594;45.192;5.722;2023-03-20T08:37:35;99638.16;;;24.58;35.50
34197;BME280;36594;45.192;5.722;2023-03-20T08:40:24;99638.16;;;24.58;35.57
34197;BME280;36594;45.192;5.722;2023-03-20T08:43:16;99637.91;;;24.60;35.50
34197;BME280;36594;45.192;5.722;2023-03-20T08:46:05;99639.84;;;24.59;35.59
34197;BME280;36594;45.192;5.722;2023-03-20T08:48:54;99636.80;;;24.58;35.54
34197;BME280;36594;45.192;5.722;2023-03-20T08:51:43;99644.24;;;24.60;35.54
34197;BME280;36594;45.192;5.722;2023-03-20T08:54:33;99645.92;;;24.61;35.48
34197;BME280;36594;45.192;5.722;2023-03-20T08:57:21;99645.03;;;24.58;35.50
34197;BME280;36594;45.192;5.722;2023-03-20T09:00:12;99645.88;;;24.59;35.51
34197;BME280;36594;45.192;5.722;2023-03-20T09:03:01;99645.34;;;24.59;35.55
34197;BME280;36594;45.192;5.722;2023-03-20T09:05:50;99646.12;;;24.57;35.59
34197;BME280;36594;45.192;5.722;2023-03-20T09:08:38;99657.75;;;24.62;35.43
34197;BME280;36594;45.192;5.722;2023-03-20T09:11:27;99658.03;;;24.63;35.35
34197;BME280;36594;45.192;5.722;2023-03-20T09:14:15;99656.71;;;24.65;35.34
34197;BME280;36594;45.192;5.722;2023-03-20T09:17:05;99652.84;;;24.64;35.31
34197;BME280;36594;45.192;5.722;2023-03-20T09:19:53;99652.80;;;24.61;35.33
34197;BME280;36594;45.192;5.722;2023-03-20T09:22:41;99653.06;;;24.62;35.38
34197;BME280;36594;45.192;5.722;2023-03-20T09:25:32;99660.24;;;24.63;35.38
34197;BME280;36594;45.192;5.722;2023-03-20T09:28:20;99657.19;;;24.62;35.45
34197;BME280;36594;45.192;5.722;2023-03-20T09:31:08;99652.53;;;24.63;35.49
34197;BME280;36594;45.192;5.722;2023-03-20T09:34:00;99661.88;;;24.62;35.50
34197;BME280;36594;45.192;5.722;2023-03-20T09:36:48;99669.80;;;24.61;35.55
34197;BME280;36594;45.192;5.722;2023-03-20T09:39:37;99671.17;;;24.61;35.49
34197;BME280;36594;45.192;5.722;2023-03-20T09:42:31;99672.30;;;24.62;34.92
34197;BME280;36594;45.192;5.722;2023-03-20T09:48:32;99681.05;;;24.59;34.66
34197;BME280;36594;45.192;5.722;2023-03-20T09:51:32;99682.42;;;24.59;34.77
34197;BME280;36594;45.192;5.722;2023-03-20T09:54:40;99681.21;;;24.55;34.79
34197;BME280;36594;45.192;5.722;2023-03-20T09:57:33;99685.39;;;24.58;34.82
34197;BME280;36594;45.192;5.722;2023-03-20T10:00:25;99682.90;;;24.56;34.88
34197;BME280;36594;45.192;5.722;2023-03-20T10:03:20;99681.83;;;24.57;34.83
34197;BME280;36594;45.192;5.722;2023-03-20T10:06:13;99681.83;;;24.57;34.88
34197;BME280;36594;45.192;5.722;2023-03-20T10:09:20;99683.20;;;24.57;34.92
34197;BME280;36594;45.192;5.722;2023-03-20T10:15:46;99682.90;;;24.56;34.99
34197;BME280;36594;45.192;5.722;2023-03-20T10:18:14;99687.33;;;24.57;34.94
34197;BME280;36594;45.192;5.722;2023-03-20T10:21:14;99682.95;;;24.59;34.93
34197;BME280;36594;45.192;5.722;2023-03-20T10:24:06;99684.07;;;24.60;34.94
34197;BME280;36594;45.192;5.722;2023-03-20T10:26:59;99684.52;;;24.55;34.92
34197;BME280;36594;45.192;5.722;2023-03-20T10:42:29;99677.94;;;24.56;34.92
34197;BME280;36594;45.192;5.722;2023-03-20T10:45:33;99675.13;;;24.53;34.94
34197;BME280;36594;45.192;5.722;2023-03-20T10:48:36;99677.88;;;24.53;34.94
34197;BME280;36594;45.192;5.722;2023-03-20T10:51:21;99676.28;;;24.55;35.00
34197;BME280;36594;45.192;5.722;2023-03-20T10:57:16;99684.33;;;24.59;34.91
34197;BME280;36594;45.192;5.722;2023-03-20T10:59:59;99677.99;;;24.58;34.88
34197;BME280;36594;45.192;5.722;2023-03-20T11:02:48;99680.45;;;24.57;34.96
34197;BME280;36594;45.192;5.722;2023-03-20T11:05:37;99687.33;;;24.57;34.93
34197;BME280;36594;45.192;5.722;2023-03-20T11:08:37;99688.19;;;24.60;34.91
34197;BME280;36594;45.192;5.722;2023-03-20T11:11:27;99692.09;;;24.62;34.88
34197;BME280;36594;45.192;5.722;2023-03-20T11:14:19;99701.14;;;24.62;34.88
34197;BME280;36594;45.192;5.722;2023-03-20T11:17:09;99687.41;;;24.62;34.80
34197;BME280;36594;45.192;5.722;2023-03-20T11:20:05;99687.72;;;24.63;34.81
34197;BME280;36594;45.192;5.722;2023-03-20T11:22:59;99684.48;;;24.66;34.79
34197;BME280;36594;45.192;5.722;2023-03-20T11:26:05;99688.83;;;24.65;34.79
34197;BME280;36594;45.192;5.722;2023-03-20T11:28:58;99683.65;;;24.66;34.69
34197;BME280;36594;45.192;5.722;2023-03-20T11:31:47;99689.09;;;24.63;34.63
34197;BME280;36594;45.192;5.722;2023-03-20T11:34:38;99685.86;;;24.66;34.59
34197;BME280;36594;45.192;5.722;2023-03-20T11:37:32;99683.92;;;24.67;34.59
34197;BME280;36594;45.192;5.722;2023-03-20T11:40:30;99688.36;;;24.68;34.57
34197;BME280;36594;45.192;5.722;2023-03-20T11:43:21;99683.17;;;24.69;34.57
34197;BME280;36594;45.192;5.722;2023-03-20T11:46:12;99683.34;;;24.65;34.54
34197;BME280;36594;45.192;5.722;2023-03-20T11:49:04;99685.50;;;24.63;34.49
34197;BME280;36594;45.192;5.722;2023-03-20T11:51:54;99684.66;;;24.62;34.48
34197;BME280;36594;45.192;5.722;2023-03-20T11:54:48;99686.88;;;24.63;34.51
34197;BME280;36594;45.192;5.722;2023-03-20T11:57:41;99687.77;;;24.66;34.40
34197;BME280;36594;45.192;5.722;2023-03-20T12:00:41;99681.74;;;24.66;34.41
34197;BME280;36594;45.192;5.722;2023-03-20T12:03:42;99686.92;;;24.65;34.34
34197;BME280;36594;45.192;5.722;2023-03-20T12:06:50;99680.31;;;24.64;34.47
34197;BME280;36594;45.192;5.722;2023-03-20T12:09:53;99680.84;;;24.63;34.34
34197;BME280;36594;45.192;5.722;2023-03-20T12:12:41;99676.14;;;24.61;34.24
34197;BME280;36594;45.192;5.722;2023-03-20T12:15:32;99679.36;;;24.58;34.19
34197;BME280;36594;45.192;5.722;2023-03-20T12:21:23;99671.17;;;24.61;34.07
34197;BME280;36594;45.192;5.722;2023-03-20T12:27:16;99672.75;;;24.57;34.02
34197;BME280;36594;45.192;5.722;2023-03-20T12:30:10;99666.75;;;24.60;33.91
34197;BME280;36594;45.192;5.722;2023-03-20T12:33:18;99653.53;;;24.57;33.90
34197;BME280;36594;45.192;5.722;2023-03-20T12:36:16;99651.11;;;24.60;33.91
34197;BME280;36594;45.192;5.722;2023-03-20T12:39:02;99648.88;;;24.57;33.86
34197;BME280;36594;45.192;5.722;2023-03-20T12:45:15;99649.15;;;24.58;33.91
34197;BME280;36594;45.192;5.722;2023-03-20T12:48:33;99640.91;;;24.58;33.92
34197;BME280;36594;45.192;5.722;2023-03-20T12:51:41;99637.89;;;24.57;33.97
34197;BME280;36594;45.192;5.722;2023-03-20T12:54:42;99632.39;;;24.57;33.96
34197;BME280;36594;45.192;5.722;2023-03-20T12:57:53;99625.53;;;24.57;33.97
34197;BME280;36594;45.192;5.722;2023-03-20T13:04:10;99608.53;;;24.60;33.91
34197;BME280;36594;45.192;5.722;2023-03-20T13:07:01;99605.79;;;24.60;33.97
34197;BME280;36594;45.192;5.722;2023-03-20T13:13:05;99597.60;;;24.63;33.91
34197;BME280;36594;45.192;5.722;2023-03-20T13:16:26;99585.50;;;24.61;33.92
34197;BME280;36594;45.192;5.722;2023-03-20T13:22:35;99580.23;;;24.60;33.95
34197;BME280;36594;45.192;5.722;2023-03-20T13:28:37;99562.99;;;24.62;33.89
34197;BME280;36594;45.192;5.722;2023-03-20T13:37:55;99549.00;;;24.63;33.81
34197;BME280;36594;45.192;5.722;2023-03-20T13:40:40;99545.95;;;24.62;33.78
34197;BME280;36594;45.192;5.722;2023-03-20T13:43:48;99537.22;;;24.65;33.71
34197;BME280;36594;45.192;5.722;2023-03-20T13:46:42;99527.13;;;24.68;33.70
34197;BME280;36594;45.192;5.722;2023-03-20T13:52:38;99525.75;;;24.68;33.63
34197;BME280;36594;45.192;5.722;2023-03-20T13:55:43;99519.16;;;24.69;33.60
34197;BME280;36594;45.192;5.722;2023-03-20T13:58:44;99509.01;;;24.70;33.54
34197;BME280;36594;45.192;5.722;2023-03-20T14:04:22;99491.11;;;24.67;33.50
34197;BME280;36594;45.192;5.722;2023-03-20T14:07:38;99489.25;;;24.70;33.51
34197;BME280;36594;45.192;5.722;2023-03-20T14:13:20;99490.63;;;24.70;33.39
34197;BME280;36594;45.192;5.722;2023-03-20T14:16:06;99495.32;;;24.72;33.43
34197;BME280;36594;45.192;5.722;2023-03-20T14:19:12;99493.69;;;24.74;33.32
34197;BME280;36594;45.192;5.722;2023-03-20T14:21:56;99488.98;;;24.72;33.33
34197;BME280;36594;45.192;5.722;2023-03-20T14:24:53;99487.88;;;24.70;33.39
34197;BME280;36594;45.192;5.722;2023-03-20T14:27:55;99487.83;;;24.68;32.26
34197;BME280;36594;45.192;5.722;2023-03-20T14:30:48;99488.31;;;24.65;31.90
34197;BME280;36594;45.192;5.722;2023-03-20T14:33:42;99478.38;;;24.61;31.28
34197;BME280;36594;45.192;5.722;2023-03-20T14:37:01;99475.09;;;24.62;30.85
34197;BME280;36594;45.192;5.722;2023-03-20T14:42:53;99471.73;;;24.57;30.18
34197;BME280;36594;45.192;5.722;2023-03-20T14:48:44;99462.52;;;24.35;29.17
34197;BME280;36594;45.192;5.722;2023-03-20T14:51:42;99465.33;;;24.10;28.83
34197;BME280;36594;45.192;5.722;2023-03-20T14:54:30;99460.75;;;24.01;28.71
34197;BME280;36594;45.192;5.722;2023-03-20T14:57:33;99463.34;;;23.93;28.55
34197;BME280;36594;45.192;5.722;2023-03-20T15:00:23;99458.48;;;23.84;28.63
34197;BME280;36594;45.192;5.722;2023-03-20T15:03:17;99459.63;;;23.74;28.66
34197;BME280;36594;45.192;5.722;2023-03-20T15:06:06;99461.42;;;23.54;28.45
34197;BME280;36594;45.192;5.722;2023-03-20T15:09:06;99449.89;;;23.41;28.45
34197;BME280;36594;45.192;5.722;2023-03-20T15:11:56;99449.20;;;23.24;28.50
34197;BME280;36594;45.192;5.722;2023-03-20T15:15:00;99443.25;;;23.27;28.75
34197;BME280;36594;45.192;5.722;2023-03-20T15:17:49;99442.42;;;23.38;28.86
34197;BME280;36594;45.192;5.722;2023-03-20T15:20:37;99442.13;;;23.49;28.96
34197;BME280;36594;45.192;5.722;2023-03-20T15:23:25;99440.41;;;23.60;29.07
34197;BME280;36594;45.192;5.722;2023-03-20T15:26:16;99440.05;;;23.68;29.14
34197;BME280;36594;45.192;5.722;2023-03-20T15:29:09;99434.47;;;23.77;29.13
34197;BME280;36594;45.192;5.722;2023-03-20T15:31:58;99436.53;;;23.84;29.16
34197;BME280;36594;45.192;5.722;2023-03-20T15:34:49;99440.95;;;23.85;29.32
34197;BME280;36594;45.192;5.722;2023-03-20T15:37:39;99431.20;;;23.91;29.42
34197;BME280;36594;45.192;5.722;2023-03-20T15:40:31;99430.74;;;23.97;29.38
34197;BME280;36594;45.192;5.722;2023-03-20T15:43:24;99427.83;;;24.01;29.44
34197;BME280;36594;45.192;5.722;2023-03-20T15:46:13;99415.75;;;24.02;29.52
34197;BME280;36594;45.192;5.722;2023-03-20T15:49:03;99418.02;;;24.05;29.58
34197;BME280;36594;45.192;5.722;2023-03-20T15:51:53;99414.52;;;24.07;29.78
34197;BME280;36594;45.192;5.722;2023-03-20T15:54:44;99414.52;;;24.07;29.87
34197;BME280;36594;45.192;5.722;2023-03-20T15:57:38;99414.81;;;24.08;30.02
34197;BME280;36594;45.192;5.722;2023-03-20T16:00:37;99412.93;;;24.11;30.08
34197;BME280;36594;45.192;5.722;2023-03-20T16:03:26;99414.36;;;24.14;30.17
34197;BME280;36594;45.192;5.722;2023-03-20T16:06:18;99411.61;;;24.14;30.31
34197;BME280;36594;45.192;5.722;2023-03-20T16:09:07;99404.80;;;24.16;30.38
34197;BME280;36594;45.192;5.722;2023-03-20T16:12:01;99402.63;;;24.18;30.44
34197;BME280;36594;45.192;5.722;2023-03-20T16:14:52;99404.59;;;24.20;30.49
34197;BME280;36594;45.192;5.722;2023-03-20T16:17:41;99405.42;;;24.21;30.53
34197;BME280;36594;45.192;5.722;2023-03-20T16:20:36;99405.20;;;24.22;30.70
34197;BME280;36594;45.192;5.722;2023-03-20T16:23:43;99406.05;;;24.25;30.85
34197;BME280;36594;45.192;5.722;2023-03-20T16:26:34;99405.83;;;24.27;30.94
34197;BME280;36594;45.192;5.722;2023-03-20T16:29:24;99405.47;;;24.23;30.93
34197;BME280;36594;45.192;5.722;2023-03-20T16:32:22;99405.47;;;24.23;31.01
34197;BME280;36594;45.192;5.722;2023-03-20T16:35:19;99404.59;;;24.20;31.04
34197;BME280;36594;45.192;5.722;2023-03-20T16:38:28;99409.11;;;24.26;31.09
34197;BME280;36594;45.192;5.722;2023-03-20T16:41:34;99416.24;;;24.27;31.11
34197;BME280;36594;45.192;5.722;2023-03-20T16:44:28;99422.25;;;24.24;31.21
34197;BME280;36594;45.192;5.722;2023-03-20T16:47:20;99421.94;;;24.23;31.29
34197;BME280;36594;45.192;5.722;2023-03-20T16:50:24;99421.72;;;24.25;31.29
34197;BME280;36594;45.192;5.722;2023-03-20T16:53:16;99426.16;;;24.28;31.30
34197;BME280;36594;45.192;5.722;2023-03-20T16:56:15;99424.25;;;24.29;31.31